X  CloseMetar Aviation Weather Data     YBBN Brisbane International

Temperature

28°C Temperature

23°C Dewpoint

74% Humidity



Wind

23 KM/H

14 MPH

 6 M/S

12 KTS



30°
North North
East
Current Conditions

Partly Cloudy Partly Cloudy
Pressure 1004.92 (hPa) - 29.68 (in)
Visibility 6.2 (mi) - 10 (km)
Airport
Airport-code YBBN

Location Brisbane International 14 (km)

Metar:
YBBN 190230Z 03012KT 9999 VCSH FEW020 28/23 Q1005 INTER 0230/0530 3000 SHRA BKN010 TEMPO 0300/0530 VRB20G35KT 1500 TSRA BKN010 SCT030CB

Time: 19-01-2020 12:30